createdAt,value
2023-03-04T00:12:18.213Z,5.21
2023-03-04T00:27:20.555Z,5.22
2023-03-04T00:42:22.792Z,5.59
2023-03-04T00:57:25.014Z,5.72
2023-03-04T01:12:27.352Z,6.02
2023-03-04T01:27:29.599Z,5.29
2023-03-04T01:42:31.863Z,5.41
2023-03-04T01:57:34.145Z,4.96
2023-03-04T02:12:36.469Z,4.75
2023-03-04T02:27:38.913Z,4.42
2023-03-04T02:42:41.228Z,4.07
2023-03-04T02:57:43.553Z,3.89
2023-03-04T03:12:45.806Z,4.01
2023-03-04T03:27:48.076Z,3.99
2023-03-04T03:42:50.308Z,3.4
2023-03-04T03:57:52.670Z,3.59
2023-03-04T04:12:54.991Z,3.19
2023-03-04T04:27:57.224Z,3.4
2023-03-04T04:42:59.465Z,3.07
2023-03-04T04:58:01.707Z,3.17
2023-03-04T05:13:04.135Z,3.26
2023-03-04T05:28:06.359Z,3.17
2023-03-04T05:43:08.579Z,2.77
2023-03-04T05:58:10.951Z,2.61
2023-03-04T06:13:13.187Z,2.31
2023-03-04T06:28:15.432Z,2.16
2023-03-04T06:43:17.732Z,2.44
2023-03-04T06:58:19.916Z,2.41
2023-03-04T07:13:22.167Z,2.04
2023-03-04T07:28:24.408Z,2.28
2023-03-04T07:43:26.848Z,2.09
2023-03-04T07:58:29.074Z,1.72
2023-03-04T08:13:31.571Z,1.77
2023-03-04T08:28:33.758Z,1.78
2023-03-04T08:43:36.028Z,1.86
2023-03-04T08:58:38.272Z,1.81
2023-03-04T09:13:40.543Z,1.99
2023-03-04T09:28:42.776Z,1.45
2023-03-04T09:43:45.064Z,1.69
2023-03-04T09:58:47.263Z,1.94
2023-03-04T10:13:49.492Z,2.38
2023-03-04T10:28:51.836Z,1.48
2023-03-04T10:43:54.099Z,2.2
2023-03-04T10:58:56.365Z,1.33
2023-03-04T11:13:58.727Z,2.16
2023-03-04T11:29:01.050Z,1.71
2023-03-04T11:44:03.240Z,1.97
2023-03-04T11:59:05.506Z,1.92
2023-03-04T12:14:07.727Z,2.13
2023-03-04T12:29:10.014Z,2.23
2023-03-04T12:44:12.238Z,1.49
2023-03-04T12:59:14.537Z,1.86
2023-03-04T13:14:16.774Z,2.38
2023-03-04T13:29:19.256Z,1.95
2023-03-04T13:44:21.486Z,1.93
2023-03-04T13:59:23.842Z,2.16
2023-03-04T14:14:26.104Z,2.2
2023-03-04T14:29:28.311Z,2.64
2023-03-04T14:44:30.582Z,1.87
2023-03-04T14:59:32.828Z,2.48
2023-03-04T15:14:35.082Z,2.53
2023-03-04T15:29:37.273Z,2.47
2023-03-04T15:44:39.508Z,2.4
2023-03-04T15:59:41.843Z,3.01
2023-03-04T16:14:44.246Z,4.45
2023-03-04T16:29:46.537Z,4.58
2023-03-04T16:44:48.775Z,3.81
2023-03-04T16:59:51.030Z,4.04
2023-03-04T17:14:53.317Z,3.61
2023-03-04T17:29:55.621Z,4.46
2023-03-04T17:44:57.879Z,4.92
2023-03-04T18:00:00.108Z,5.01
2023-03-04T18:15:02.386Z,4.82
2023-03-04T18:30:04.669Z,5.07
2023-03-04T18:45:06.914Z,5.45
2023-03-04T19:00:09.268Z,5.73
2023-03-04T19:15:11.520Z,6.07
2023-03-04T19:30:13.724Z,6.31
2023-03-04T19:45:15.977Z,6.74
2023-03-04T20:00:18.269Z,7.46
2023-03-04T20:15:20.539Z,8.03
2023-03-04T20:30:22.965Z,7.86
2023-03-04T20:45:25.359Z,6.96
2023-03-04T21:00:27.941Z,6.95
2023-03-04T21:15:31.016Z,7.76
2023-03-04T21:30:33.252Z,7.86
2023-03-04T21:45:35.485Z,8.46
2023-03-04T22:00:38.043Z,8.66
2023-03-04T22:15:40.333Z,7.3
2023-03-04T22:30:42.582Z,8.53
2023-03-04T22:45:44.920Z,9.22
2023-03-04T23:00:47.161Z,9.53
2023-03-04T23:15:49.650Z,9.41
2023-03-04T23:30:52.130Z,8.08
2023-03-04T23:45:54.645Z,7.9
